Time;durP1;ratioP1;P1;durP2;ratioP2;P2;SDS_P1;SDS_P2;PMS_P1;PMS_P2;Temp;Humidity;BMP_temperature;BMP_pressure;BME280_temperature;BME280_humidity;BME280_pressure;Samples;Min_cycle;Max_cycle;Signal;HPM_P1;HPM_P2
2023/09/15 00:00:07;;;;;;;8.27;4.93;;;;;;;;;;4987197;28;20967;-56
2023/09/15 00:02:32;;;;;;;9.15;4.47;;;;;;;;;;4986251;28;20901;-56
2023/09/15 00:04:58;;;;;;;9.67;4.77;;;;;;;;;;4976723;28;20429;-56
2023/09/15 00:07:23;;;;;;;8.80;4.90;;;;;;;;;;4982960;28;20409;-56
2023/09/15 00:09:49;;;;;;;9.10;4.35;;;;;;;;;;4994887;28;20407;-56
2023/09/15 00:12:14;;;;;;;8.93;5.00;;;;;;;;;;5019546;28;20395;-57
2023/09/15 00:14:39;;;;;;;10.47;5.20;;;;;;;;;;5018497;28;20416;-57
2023/09/15 00:17:05;;;;;;;8.50;5.03;;;;;;;;;;5022645;28;20762;-56
2023/09/15 00:19:31;;;;;;;9.85;5.20;;;;;;;;;;5022882;28;20412;-57
2023/09/15 00:21:56;;;;;;;9.17;4.67;;;;;;;;;;5020809;28;20410;-57
2023/09/15 00:24:22;;;;;;;9.00;4.68;;;;;;;;;;5020621;28;20415;-56
2023/09/15 00:26:48;;;;;;;9.57;5.03;;;;;;;;;;5029445;28;20469;-56
2023/09/15 00:29:13;;;;;;;9.63;4.40;;;;;;;;;;5023883;28;20448;-57
2023/09/15 00:31:39;;;;;;;9.07;4.40;;;;;;;;;;5024136;28;20403;-56
2023/09/15 00:34:05;;;;;;;7.63;4.38;;;;;;;;;;5017371;28;20898;-57
2023/09/15 00:36:30;;;;;;;8.90;4.30;;;;;;;;;;5023376;28;20437;-57
2023/09/15 00:38:55;;;;;;;7.97;4.70;;;;;;;;;;5023092;28;20401;-56
2023/09/15 00:41:21;;;;;;;9.53;4.83;;;;;;;;;;5018569;28;20448;-57
2023/09/15 00:43:46;;;;;;;8.77;4.37;;;;;;;;;;5021213;28;20474;-57
2023/09/15 00:46:11;;;;;;;9.53;5.17;;;;;;;;;;5021432;28;20417;-56
2023/09/15 00:48:39;;;;;;;9.55;4.38;;;;;;;;;;5020372;28;20411;-56
2023/09/15 00:51:06;;;;;;;8.75;4.38;;;;;;;;;;5019010;28;20407;-56
2023/09/15 00:53:32;;;;;;;9.03;4.77;;;;;;;;;;5022937;28;20414;-57
2023/09/15 00:55:57;;;;;;;8.83;4.73;;;;;;;;;;5021957;28;20409;-56
2023/09/15 00:58:22;;;;;;;9.55;4.80;;;;;;;;;;5017824;28;20449;-57
2023/09/15 01:00:48;;;;;;;7.83;4.40;;;;;;;;;;4997588;28;20446;-56
2023/09/15 01:03:14;;;;;;;10.27;4.57;;;;;;;;;;4984670;28;20439;-57
2023/09/15 01:05:40;;;;;;;8.43;4.37;;;;;;;;;;4990301;28;20414;-56
2023/09/15 01:08:06;;;;;;;9.07;4.70;;;;;;;;;;4989206;28;20429;-56
2023/09/15 01:10:33;;;;;;;7.80;4.32;;;;;;;;;;4986852;28;20430;-57
2023/09/15 01:12:58;;;;;;;9.45;4.60;;;;;;;;;;4988915;28;20421;-57
2023/09/15 01:15:26;;;;;;;9.90;4.47;;;;;;;;;;4988637;28;20412;-56
2023/09/15 01:17:55;;;;;;;9.45;4.47;;;;;;;;;;4984555;28;20395;-56
2023/09/15 01:20:27;;;;;;;10.02;5.03;;;;;;;;;;4979755;28;20389;-56
2023/09/15 01:23:01;;;;;;;9.23;4.35;;;;;;;;;;4986314;28;20417;-57
2023/09/15 01:25:46;;;;;;;8.93;4.28;;;;;;;;;;4994691;28;20453;-56
2023/09/15 01:28:19;;;;;;;8.55;4.35;;;;;;;;;;4990512;28;20429;-57
2023/09/15 01:30:44;;;;;;;9.77;4.40;;;;;;;;;;4989864;28;20425;-56
2023/09/15 01:33:11;;;;;;;8.37;4.57;;;;;;;;;;4994191;28;20399;-57
2023/09/15 01:35:36;;;;;;;7.18;4.03;;;;;;;;;;4994035;28;20456;-56
2023/09/15 01:38:02;;;;;;;9.80;4.80;;;;;;;;;;4990404;28;20439;-57
2023/09/15 01:40:27;;;;;;;9.10;4.30;;;;;;;;;;4990321;28;20549;-57
2023/09/15 01:42:53;;;;;;;9.17;4.53;;;;;;;;;;4986896;28;20413;-56
2023/09/15 01:45:18;;;;;;;9.48;4.50;;;;;;;;;;4982149;28;20860;-56
2023/09/15 01:47:44;;;;;;;8.13;4.40;;;;;;;;;;4986142;28;20403;-57
2023/09/15 01:50:09;;;;;;;7.93;4.27;;;;;;;;;;4995681;28;20411;-57
2023/09/15 01:52:34;;;;;;;8.70;4.30;;;;;;;;;;4991581;28;20396;-57
2023/09/15 01:54:59;;;;;;;8.90;4.57;;;;;;;;;;4988350;28;21270;-57
2023/09/15 01:57:25;;;;;;;8.50;4.72;;;;;;;;;;4990203;28;20461;-56
2023/09/15 01:59:50;;;;;;;34.25;7.10;;;;;;;;;;4996584;28;20495;-57
2023/09/15 02:02:16;;;;;;;22.03;15.10;;;;;;;;;;5000095;28;20473;-56
2023/09/15 02:04:41;;;;;;;7.77;4.53;;;;;;;;;;5020809;28;20453;-57
2023/09/15 02:07:07;;;;;;;17.17;7.00;;;;;;;;;;5021186;28;20422;-57
2023/09/15 02:09:32;;;;;;;13.52;5.88;;;;;;;;;;5025696;28;20399;-57
2023/09/15 02:11:57;;;;;;;9.67;5.30;;;;;;;;;;5024453;28;20403;-56
2023/09/15 02:14:23;;;;;;;8.70;4.63;;;;;;;;;;5020715;28;20407;-56
2023/09/15 02:16:48;;;;;;;9.17;4.60;;;;;;;;;;5024473;28;20405;-57
2023/09/15 02:19:14;;;;;;;9.70;5.00;;;;;;;;;;5024383;28;20407;-57
2023/09/15 02:21:39;;;;;;;7.55;4.25;;;;;;;;;;5022137;28;20797;-57
2023/09/15 02:24:05;;;;;;;9.97;4.83;;;;;;;;;;5022166;28;20465;-57
2023/09/15 02:26:30;;;;;;;14.60;12.83;;;;;;;;;;5023746;28;20449;-57
2023/09/15 02:28:55;;;;;;;11.02;4.70;;;;;;;;;;5024306;28;20407;-57
2023/09/15 02:31:20;;;;;;;11.10;5.50;;;;;;;;;;5019155;28;20395;-57
2023/09/15 02:33:46;;;;;;;10.43;7.37;;;;;;;;;;5023768;28;20413;-57
2023/09/15 02:36:11;;;;;;;11.93;5.20;;;;;;;;;;5024839;28;20932;-57
2023/09/15 02:38:37;;;;;;;9.77;4.80;;;;;;;;;;5021265;28;20415;-57
2023/09/15 02:41:03;;;;;;;8.45;4.50;;;;;;;;;;5022966;28;20411;-57
2023/09/15 02:43:28;;;;;;;9.32;4.70;;;;;;;;;;5024433;28;20470;-56
2023/09/15 02:45:54;;;;;;;9.27;4.67;;;;;;;;;;5021209;28;20427;-57
2023/09/15 02:48:19;;;;;;;8.97;4.90;;;;;;;;;;4989496;28;21288;-56
2023/09/15 02:50:45;;;;;;;11.50;9.57;;;;;;;;;;4982269;28;20854;-56
2023/09/15 02:53:11;;;;;;;22.15;6.30;;;;;;;;;;4982203;28;20436;-57
2023/09/15 02:55:39;;;;;;;9.83;4.67;;;;;;;;;;4990591;28;20531;-56
2023/09/15 02:58:05;;;;;;;6.67;4.13;;;;;;;;;;4991242;28;20983;-57
2023/09/15 03:00:30;;;;;;;9.57;4.40;;;;;;;;;;4989994;28;20401;-56
2023/09/15 03:02:56;;;;;;;7.70;4.20;;;;;;;;;;4992031;28;20959;-56
2023/09/15 03:05:21;;;;;;;18.33;5.40;;;;;;;;;;4990102;28;20896;-56
2023/09/15 03:07:46;;;;;;;7.70;4.27;;;;;;;;;;4989556;28;20469;-57
2023/09/15 03:10:12;;;;;;;41.17;16.33;;;;;;;;;;4987264;28;20403;-56
2023/09/15 03:12:37;;;;;;;9.23;4.63;;;;;;;;;;4986344;28;20491;-57
2023/09/15 03:15:05;;;;;;;8.10;4.30;;;;;;;;;;4981840;28;20493;-56
2023/09/15 03:17:30;;;;;;;7.10;4.00;;;;;;;;;;4981949;28;20413;-56
2023/09/15 03:19:56;;;;;;;9.45;4.22;;;;;;;;;;4992390;28;20416;-57
2023/09/15 03:22:21;;;;;;;8.23;4.30;;;;;;;;;;4988743;28;20462;-56
2023/09/15 03:24:46;;;;;;;8.83;4.23;;;;;;;;;;4989942;28;21007;-56
2023/09/15 03:27:12;;;;;;;7.73;4.40;;;;;;;;;;4989041;28;20456;-56
2023/09/15 03:29:37;;;;;;;10.57;4.60;;;;;;;;;;4990803;28;20471;-56
2023/09/15 03:32:03;;;;;;;22.73;5.60;;;;;;;;;;4989550;28;20414;-56
2023/09/15 03:34:28;;;;;;;9.27;4.22;;;;;;;;;;4984702;28;20403;-56
2023/09/15 03:36:53;;;;;;;8.47;4.03;;;;;;;;;;4984781;28;20406;-56
2023/09/15 03:39:19;;;;;;;20.23;7.20;;;;;;;;;;4981090;28;20440;-56
2023/09/15 03:41:44;;;;;;;7.70;4.10;;;;;;;;;;4987643;28;20484;-57
2023/09/15 03:44:09;;;;;;;12.30;11.10;;;;;;;;;;4988878;28;20553;-56
2023/09/15 03:46:35;;;;;;;10.57;4.30;;;;;;;;;;4991256;28;20912;-56
2023/09/15 03:49:00;;;;;;;9.43;4.10;;;;;;;;;;4989090;28;20912;-56
2023/09/15 03:51:26;;;;;;;8.32;4.85;;;;;;;;;;4990599;28;20410;-56
2023/09/15 03:53:51;;;;;;;7.97;4.03;;;;;;;;;;4990108;28;20410;-56
2023/09/15 03:56:16;;;;;;;9.27;4.67;;;;;;;;;;4984738;28;20439;-56
2023/09/15 03:58:42;;;;;;;7.80;4.38;;;;;;;;;;4979581;28;20939;-56
2023/09/15 04:01:08;;;;;;;27.03;18.60;;;;;;;;;;4986171;28;21265;-57
2023/09/15 04:03:34;;;;;;;9.70;4.20;;;;;;;;;;4993155;28;21120;-56
2023/09/15 04:06:00;;;;;;;9.15;4.03;;;;;;;;;;4986925;28;20862;-56
2023/09/15 04:08:25;;;;;;;7.75;4.20;;;;;;;;;;4992300;28;20792;-56
2023/09/15 04:10:51;;;;;;;8.90;4.30;;;;;;;;;;4988765;28;21261;-56
2023/09/15 04:13:16;;;;;;;7.63;4.43;;;;;;;;;;4987146;28;20442;-56
2023/09/15 04:15:42;;;;;;;7.50;4.30;;;;;;;;;;4988374;28;20418;-57
2023/09/15 04:18:08;;;;;;;10.10;4.30;;;;;;;;;;4989462;28;21049;-56
2023/09/15 04:20:33;;;;;;;9.25;4.75;;;;;;;;;;4981292;28;20395;-56
2023/09/15 04:22:59;;;;;;;7.70;4.28;;;;;;;;;;4980782;28;20429;-56
2023/09/15 04:25:24;;;;;;;9.13;4.43;;;;;;;;;;4985835;28;20899;-56
2023/09/15 04:27:49;;;;;;;7.70;4.47;;;;;;;;;;4988381;28;20406;-56
2023/09/15 04:30:15;;;;;;;9.23;4.30;;;;;;;;;;4987428;28;20407;-56
2023/09/15 04:32:41;;;;;;;8.30;4.55;;;;;;;;;;4991094;28;20988;-56
2023/09/15 04:35:08;;;;;;;8.17;4.33;;;;;;;;;;4989586;28;20426;-56
2023/09/15 04:37:34;;;;;;;5.87;3.53;;;;;;;;;;4988263;28;20410;-56
2023/09/15 04:40:01;;;;;;;7.47;4.43;;;;;;;;;;4986732;28;20888;-56
2023/09/15 04:42:26;;;;;;;8.68;4.40;;;;;;;;;;4987042;28;20405;-56
2023/09/15 04:44:51;;;;;;;8.70;4.37;;;;;;;;;;4980467;28;20462;-56
2023/09/15 04:47:30;;;;;;;7.70;4.60;;;;;;;;;;4980266;28;20407;-56
2023/09/15 04:49:55;;;;;;;7.57;4.22;;;;;;;;;;4990517;28;20441;-56
2023/09/15 04:52:20;;;;;;;8.13;4.47;;;;;;;;;;4992360;28;20797;-56
2023/09/15 04:54:45;;;;;;;8.67;4.70;;;;;;;;;;4987092;28;20434;-56
2023/09/15 04:57:11;;;;;;;8.17;4.40;;;;;;;;;;4992072;28;20402;-56
2023/09/15 04:59:36;;;;;;;8.15;4.25;;;;;;;;;;4995210;28;20399;-56
2023/09/15 05:02:02;;;;;;;9.43;4.30;;;;;;;;;;4990430;28;20413;-56
2023/09/15 05:04:27;;;;;;;9.40;5.10;;;;;;;;;;4986011;28;20452;-56
2023/09/15 05:06:52;;;;;;;9.23;4.93;;;;;;;;;;4986977;28;20412;-56
2023/09/15 05:09:20;;;;;;;9.03;4.70;;;;;;;;;;4984412;28;20473;-56
2023/09/15 05:11:45;;;;;;;8.00;4.28;;;;;;;;;;4988590;28;20538;-56
2023/09/15 05:14:10;;;;;;;8.43;5.20;;;;;;;;;;4991355;28;20812;-56
2023/09/15 05:16:36;;;;;;;7.77;4.87;;;;;;;;;;4993969;28;21211;-56
2023/09/15 05:19:01;;;;;;;9.13;4.90;;;;;;;;;;4991904;28;20413;-56
2023/09/15 05:21:27;;;;;;;8.80;4.75;;;;;;;;;;4991533;28;20410;-56
2023/09/15 05:23:52;;;;;;;7.65;5.07;;;;;;;;;;4997409;28;20434;-56
2023/09/15 05:26:17;;;;;;;9.13;4.60;;;;;;;;;;4988722;28;20402;-56
2023/09/15 05:28:43;;;;;;;8.23;5.33;;;;;;;;;;4984531;28;20432;-56
2023/09/15 05:31:08;;;;;;;9.20;5.37;;;;;;;;;;4987820;28;21459;-56
2023/09/15 05:33:34;;;;;;;9.33;5.50;;;;;;;;;;4993703;28;20946;-56
2023/09/15 05:35:59;;;;;;;10.93;5.07;;;;;;;;;;4990620;28;20410;-56
2023/09/15 05:38:24;;;;;;;9.73;5.22;;;;;;;;;;4990857;28;20394;-57
2023/09/15 05:40:50;;;;;;;10.87;5.43;;;;;;;;;;4994656;28;20411;-57
2023/09/15 05:43:16;;;;;;;8.87;4.93;;;;;;;;;;4991204;28;21079;-57
2023/09/15 05:45:41;;;;;;;10.40;5.57;;;;;;;;;;4991535;28;20441;-56
2023/09/15 05:48:12;;;;;;;8.37;5.60;;;;;;;;;;4996441;28;20418;-57
2023/09/15 05:50:37;;;;;;;8.18;5.25;;;;;;;;;;4991820;28;20402;-57
2023/09/15 05:53:03;;;;;;;8.13;5.33;;;;;;;;;;4982652;28;20422;-57
2023/09/15 05:55:28;;;;;;;9.00;5.10;;;;;;;;;;4987308;28;20391;-56
2023/09/15 05:57:53;;;;;;;8.50;5.50;;;;;;;;;;4992807;28;20419;-57
2023/09/15 06:00:19;;;;;;;11.60;5.67;;;;;;;;;;4989850;28;20403;-56
2023/09/15 06:02:44;;;;;;;9.87;5.60;;;;;;;;;;4990125;28;20803;-57
2023/09/15 06:05:09;;;;;;;8.55;5.68;;;;;;;;;;4992249;28;20411;-57
2023/09/15 06:07:36;;;;;;;11.40;5.88;;;;;;;;;;4989746;28;20506;-57
2023/09/15 06:10:01;;;;;;;8.98;5.65;;;;;;;;;;4989528;28;20414;-57
2023/09/15 06:12:26;;;;;;;11.40;5.50;;;;;;;;;;4988264;28;20470;-57
2023/09/15 06:14:54;;;;;;;9.63;5.60;;;;;;;;;;4975585;28;20501;-57
2023/09/15 06:17:20;;;;;;;8.60;5.37;;;;;;;;;;4989793;28;20417;-57
2023/09/15 06:19:45;;;;;;;10.20;5.40;;;;;;;;;;4991055;28;20403;-56
2023/09/15 06:22:10;;;;;;;9.60;5.17;;;;;;;;;;5011393;28;20963;-57
2023/09/15 06:24:36;;;;;;;11.30;5.60;;;;;;;;;;5023276;28;20901;-56
2023/09/15 06:27:01;;;;;;;10.55;5.20;;;;;;;;;;5025227;28;20503;-57
2023/09/15 06:29:26;;;;;;;8.13;4.83;;;;;;;;;;5017394;28;20404;-57
2023/09/15 06:31:52;;;;;;;9.83;5.27;;;;;;;;;;5017543;28;20407;-57
2023/09/15 06:34:17;;;;;;;7.67;4.50;;;;;;;;;;5024916;28;20877;-57
2023/09/15 06:36:42;;;;;;;9.37;5.00;;;;;;;;;;5024928;28;20956;-57
2023/09/15 06:39:09;;;;;;;8.67;4.53;;;;;;;;;;5018692;28;21993;-57
2023/09/15 06:41:34;;;;;;;8.00;4.50;;;;;;;;;;5023839;28;20401;-57
2023/09/15 06:44:00;;;;;;;10.13;4.50;;;;;;;;;;5016924;28;20804;-57
2023/09/15 06:46:26;;;;;;;12.70;4.80;;;;;;;;;;5019218;28;20412;-57
2023/09/15 06:48:52;;;;;;;8.73;4.75;;;;;;;;;;5019697;28;20403;-57
2023/09/15 06:51:17;;;;;;;8.68;4.50;;;;;;;;;;5023229;28;20510;-57
2023/09/15 06:53:42;;;;;;;9.10;5.00;;;;;;;;;;5022064;28;20391;-57
2023/09/15 06:56:08;;;;;;;8.07;4.53;;;;;;;;;;5020519;28;20821;-57
2023/09/15 06:58:33;;;;;;;9.90;4.80;;;;;;;;;;5025014;28;21052;-57
2023/09/15 07:00:59;;;;;;;9.57;5.00;;;;;;;;;;5023642;28;20962;-57
2023/09/15 07:03:26;;;;;;;9.07;4.30;;;;;;;;;;5017976;28;20410;-57
2023/09/15 07:05:52;;;;;;;8.30;4.70;;;;;;;;;;5028321;28;20888;-57
2023/09/15 07:08:17;;;;;;;8.18;4.43;;;;;;;;;;5041806;28;20409;-57
2023/09/15 07:10:43;;;;;;;6.87;4.60;;;;;;;;;;5038451;28;20402;-57
2023/09/15 07:13:09;;;;;;;7.55;4.40;;;;;;;;;;5041512;28;20401;-57
2023/09/15 07:15:36;;;;;;;10.20;4.43;;;;;;;;;;5043632;28;20412;-57
2023/09/15 07:18:03;;;;;;;8.38;4.68;;;;;;;;;;5043098;28;20508;-58
2023/09/15 07:20:29;;;;;;;9.55;4.47;;;;;;;;;;5038283;28;20416;-57
2023/09/15 07:22:54;;;;;;;7.97;4.30;;;;;;;;;;5041751;28;20505;-57
2023/09/15 07:25:20;;;;;;;8.47;4.40;;;;;;;;;;5043374;28;20386;-57
2023/09/15 07:27:46;;;;;;;8.30;4.30;;;;;;;;;;5037921;28;20414;-57
2023/09/15 07:30:12;;;;;;;7.45;4.22;;;;;;;;;;5040836;28;21041;-57
2023/09/15 07:32:38;;;;;;;8.27;4.25;;;;;;;;;;5043900;28;20411;-57
2023/09/15 07:35:04;;;;;;;9.73;4.38;;;;;;;;;;5041112;28;20496;-58
2023/09/15 07:37:30;;;;;;;7.68;4.20;;;;;;;;;;5040338;28;20417;-57
2023/09/15 07:39:56;;;;;;;8.23;4.37;;;;;;;;;;5042528;28;20801;-57
2023/09/15 07:42:21;;;;;;;9.97;4.37;;;;;;;;;;5042539;28;20793;-57
2023/09/15 07:44:46;;;;;;;9.47;4.50;;;;;;;;;;5037716;28;20845;-57
2023/09/15 07:47:14;;;;;;;7.85;4.43;;;;;;;;;;5025618;28;21127;-57
2023/09/15 07:49:39;;;;;;;8.43;4.80;;;;;;;;;;5034838;28;20416;-57
2023/09/15 07:52:05;;;;;;;7.90;4.40;;;;;;;;;;5030381;28;20410;-57
2023/09/15 07:54:30;;;;;;;9.27;4.40;;;;;;;;;;5032634;28;20403;-57
2023/09/15 07:56:56;;;;;;;7.63;4.07;;;;;;;;;;5038049;28;20394;-57
2023/09/15 07:59:21;;;;;;;7.90;4.40;;;;;;;;;;5031902;28;20421;-57
2023/09/15 08:01:46;;;;;;;7.65;4.40;;;;;;;;;;5036723;28;20876;-57
2023/09/15 08:04:12;;;;;;;8.32;4.35;;;;;;;;;;5030042;28;20425;-57
2023/09/15 08:06:37;;;;;;;9.60;4.45;;;;;;;;;;5028955;28;20410;-57
2023/09/15 08:09:04;;;;;;;7.90;4.37;;;;;;;;;;5031304;28;20411;-58
2023/09/15 08:11:34;;;;;;;8.07;4.30;;;;;;;;;;5033758;28;20401;-57
2023/09/15 08:13:59;;;;;;;8.30;4.50;;;;;;;;;;5021691;28;20413;-57
2023/09/15 08:16:25;;;;;;;7.77;4.07;;;;;;;;;;5022792;28;20407;-57
2023/09/15 08:18:50;;;;;;;7.57;4.20;;;;;;;;;;5022832;28;20452;-57
2023/09/15 08:21:15;;;;;;;8.57;4.20;;;;;;;;;;5016310;28;20407;-57
2023/09/15 08:23:41;;;;;;;8.55;4.57;;;;;;;;;;5029380;28;20423;-58
2023/09/15 08:26:06;;;;;;;7.82;4.30;;;;;;;;;;5031117;28;20422;-57
2023/09/15 08:28:31;;;;;;;8.50;4.10;;;;;;;;;;5033040;28;20400;-57
2023/09/15 08:30:57;;;;;;;7.63;4.43;;;;;;;;;;5034234;28;20414;-57
2023/09/15 08:33:22;;;;;;;9.67;5.17;;;;;;;;;;5028861;28;20412;-57
2023/09/15 08:35:47;;;;;;;8.47;4.13;;;;;;;;;;5030004;28;20410;-57
2023/09/15 08:38:13;;;;;;;8.77;4.20;;;;;;;;;;5023583;28;20414;-57
2023/09/15 08:40:46;;;;;;;10.20;4.57;;;;;;;;;;5029144;28;20918;-57
2023/09/15 08:43:12;;;;;;;9.82;4.53;;;;;;;;;;5028852;28;20757;-57
2023/09/15 08:45:37;;;;;;;7.30;4.10;;;;;;;;;;5025263;28;20402;-57
2023/09/15 08:48:04;;;;;;;8.37;4.43;;;;;;;;;;5034520;28;20885;-58
2023/09/15 08:50:29;;;;;;;9.63;4.63;;;;;;;;;;5041517;28;20401;-57
2023/09/15 08:52:55;;;;;;;8.70;4.50;;;;;;;;;;5032544;28;20434;-56
2023/09/15 08:55:20;;;;;;;7.60;3.97;;;;;;;;;;5024344;28;20881;-57
2023/09/15 08:57:45;;;;;;;7.80;3.93;;;;;;;;;;5029208;28;20416;-57
2023/09/15 09:00:12;;;;;;;9.33;4.83;;;;;;;;;;5026508;28;20410;-56
2023/09/15 09:02:38;;;;;;;9.95;4.75;;;;;;;;;;5025356;28;20429;-57
2023/09/15 09:05:03;;;;;;;8.50;4.80;;;;;;;;;;5025886;28;20418;-57
2023/09/15 09:07:29;;;;;;;8.93;4.33;;;;;;;;;;5028594;28;20408;-57
2023/09/15 09:09:54;;;;;;;9.33;4.30;;;;;;;;;;5026595;28;20411;-56
2023/09/15 09:12:20;;;;;;;8.63;4.30;;;;;;;;;;5025350;28;20403;-57
2023/09/15 09:14:45;;;;;;;8.20;3.78;;;;;;;;;;5036482;28;20411;-57
2023/09/15 09:17:10;;;;;;;7.20;3.90;;;;;;;;;;5038210;28;20395;-57
2023/09/15 09:19:37;;;;;;;7.50;4.07;;;;;;;;;;5048028;28;20401;-57
2023/09/15 09:22:03;;;;;;;7.68;3.92;;;;;;;;;;5040509;28;20776;-57
2023/09/15 09:24:28;;;;;;;7.37;3.67;;;;;;;;;;5029758;28;20394;-57
2023/09/15 09:26:54;;;;;;;7.63;4.00;;;;;;;;;;5024612;28;20775;-57
2023/09/15 09:29:23;;;;;;;7.90;3.75;;;;;;;;;;5027998;28;20893;-57
2023/09/15 09:31:50;;;;;;;8.90;3.70;;;;;;;;;;5037692;28;20406;-57
2023/09/15 09:34:16;;;;;;;8.27;3.47;;;;;;;;;;5032467;28;20474;-57
2023/09/15 09:36:46;;;;;;;6.82;3.20;;;;;;;;;;5026853;28;20409;-57
2023/09/15 09:39:11;;;;;;;6.82;3.38;;;;;;;;;;5028589;28;20672;-57
2023/09/15 09:41:37;;;;;;;8.93;3.20;;;;;;;;;;5026406;28;20478;-57
2023/09/15 09:44:03;;;;;;;7.57;3.27;;;;;;;;;;5019587;28;20437;-57
2023/09/15 09:46:29;;;;;;;7.45;3.50;;;;;;;;;;5023884;28;20507;-57
2023/09/15 09:48:54;;;;;;;6.70;3.00;;;;;;;;;;5025056;28;20812;-57
2023/09/15 09:51:19;;;;;;;6.73;3.00;;;;;;;;;;5019507;28;21378;-57
2023/09/15 09:53:45;;;;;;;5.23;2.43;;;;;;;;;;5024082;28;20428;-57
2023/09/15 09:56:10;;;;;;;5.13;2.30;;;;;;;;;;5031478;28;20411;-57
2023/09/15 09:58:36;;;;;;;5.87;2.30;;;;;;;;;;5026998;28;20417;-57
2023/09/15 10:01:04;;;;;;;6.27;2.37;;;;;;;;;;5026292;28;20506;-57
2023/09/15 10:03:29;;;;;;;7.28;2.53;;;;;;;;;;5020088;28;20413;-57
2023/09/15 10:05:54;;;;;;;6.03;2.67;;;;;;;;;;5025835;28;20424;-57
2023/09/15 10:08:20;;;;;;;5.87;2.47;;;;;;;;;;5025061;28;20390;-57
2023/09/15 10:10:45;;;;;;;5.07;2.50;;;;;;;;;;5027744;28;20408;-57
2023/09/15 10:13:12;;;;;;;4.23;2.37;;;;;;;;;;5033870;28;20861;-57
2023/09/15 10:15:40;;;;;;;6.85;2.33;;;;;;;;;;5023988;28;20497;-57
2023/09/15 10:18:05;;;;;;;5.28;2.42;;;;;;;;;;5024392;28;20404;-57
2023/09/15 10:20:31;;;;;;;5.97;2.47;;;;;;;;;;5032751;28;20407;-57
2023/09/15 10:22:57;;;;;;;5.35;2.40;;;;;;;;;;5021026;28;20895;-57
2023/09/15 10:25:22;;;;;;;5.75;2.47;;;;;;;;;;5025350;28;20985;-57
2023/09/15 10:27:48;;;;;;;6.10;2.63;;;;;;;;;;5023361;28;20529;-57
2023/09/15 10:30:13;;;;;;;5.00;2.37;;;;;;;;;;5019833;28;20934;-57
2023/09/15 10:32:39;;;;;;;5.40;2.47;;;;;;;;;;5024809;28;20938;-57
2023/09/15 10:35:05;;;;;;;5.13;2.40;;;;;;;;;;5024494;28;20429;-57
2023/09/15 10:37:31;;;;;;;7.20;2.70;;;;;;;;;;5019975;28;20400;-57
2023/09/15 10:39:57;;;;;;;5.90;2.30;;;;;;;;;;5022691;28;20414;-57
2023/09/15 10:42:22;;;;;;;7.00;2.63;;;;;;;;;;5032101;28;20395;-57
2023/09/15 10:44:47;;;;;;;5.10;2.47;;;;;;;;;;5030784;28;20430;-57
2023/09/15 10:47:15;;;;;;;6.07;3.07;;;;;;;;;;5029924;28;20403;-57
2023/09/15 10:49:47;;;;;;;5.47;3.10;;;;;;;;;;5036528;28;20415;-57
2023/09/15 10:52:12;;;;;;;6.60;3.00;;;;;;;;;;5033904;28;20409;-57
2023/09/15 10:54:38;;;;;;;6.57;3.40;;;;;;;;;;5028389;28;20790;-57
2023/09/15 10:57:03;;;;;;;6.47;3.28;;;;;;;;;;5032282;28;20578;-57
2023/09/15 10:59:29;;;;;;;6.65;3.15;;;;;;;;;;5035216;28;20454;-56
2023/09/15 11:01:54;;;;;;;5.22;2.95;;;;;;;;;;5034034;28;20549;-57
2023/09/15 11:04:21;;;;;;;7.17;3.17;;;;;;;;;;5030331;28;20456;-57
2023/09/15 11:06:48;;;;;;;5.68;2.92;;;;;;;;;;5031403;28;20399;-57
2023/09/15 11:09:14;;;;;;;6.97;3.40;;;;;;;;;;5031827;28;20406;-57
2023/09/15 11:11:44;;;;;;;6.63;3.30;;;;;;;;;;5019456;28;20412;-57
2023/09/15 11:14:11;;;;;;;7.68;3.38;;;;;;;;;;5006752;28;20408;-57
2023/09/15 11:16:37;;;;;;;6.25;3.22;;;;;;;;;;5009755;28;20435;-57
2023/09/15 11:19:02;;;;;;;5.80;3.23;;;;;;;;;;5021162;28;20434;-57
2023/09/15 11:21:28;;;;;;;6.90;3.60;;;;;;;;;;5021224;28;20411;-57
2023/09/15 11:23:53;;;;;;;6.13;3.30;;;;;;;;;;5024410;28;20498;-57
2023/09/15 11:26:19;;;;;;;5.50;3.40;;;;;;;;;;5022727;28;20415;-57
2023/09/15 11:28:44;;;;;;;6.15;3.10;;;;;;;;;;5017912;28;20467;-57
2023/09/15 11:31:10;;;;;;;6.30;3.50;;;;;;;;;;5024191;28;20922;-58
2023/09/15 11:33:36;;;;;;;7.07;3.27;;;;;;;;;;5035786;28;20926;-57
2023/09/15 11:36:01;;;;;;;7.88;3.63;;;;;;;;;;5029855;28;20409;-58
2023/09/15 11:38:27;;;;;;;7.03;4.07;;;;;;;;;;5031460;28;20433;-57
2023/09/15 11:40:52;;;;;;;5.83;3.27;;;;;;;;;;5023792;28;20497;-57
2023/09/15 11:43:23;;;;;;;6.40;3.40;;;;;;;;;;5016238;28;20931;-57
2023/09/15 11:45:50;;;;;;;5.50;3.10;;;;;;;;;;5016677;28;20429;-57
2023/09/15 11:48:15;;;;;;;6.70;3.30;;;;;;;;;;5018482;28;20906;-57
2023/09/15 11:50:40;;;;;;;6.53;3.63;;;;;;;;;;5024017;28;20413;-57
2023/09/15 11:53:06;;;;;;;7.63;3.70;;;;;;;;;;5017876;28;20399;-58
2023/09/15 11:55:31;;;;;;;6.70;3.00;;;;;;;;;;5023224;28;20787;-57
2023/09/15 11:57:56;;;;;;;6.77;3.60;;;;;;;;;;5023904;28;20438;-57
2023/09/15 12:00:23;;;;;;;7.70;3.90;;;;;;;;;;5020365;28;20401;-57
2023/09/15 12:02:49;;;;;;;6.10;3.30;;;;;;;;;;5032148;28;20432;-57
2023/09/15 12:05:14;;;;;;;5.35;2.88;;;;;;;;;;5024454;28;20426;-57
2023/09/15 12:07:41;;;;;;;7.20;3.67;;;;;;;;;;5033373;28;20485;-57
2023/09/15 12:10:06;;;;;;;6.18;3.20;;;;;;;;;;5027810;28;20759;-58
2023/09/15 12:12:32;;;;;;;7.17;3.03;;;;;;;;;;5031930;28;20474;-57
2023/09/15 12:15:01;;;;;;;6.33;2.80;;;;;;;;;;5023332;28;20426;-57
2023/09/15 12:17:27;;;;;;;6.25;3.10;;;;;;;;;;5019842;28;20969;-57
2023/09/15 12:19:57;;;;;;;6.63;3.00;;;;;;;;;;5033950;28;20405;-57
2023/09/15 12:22:29;;;;;;;6.25;3.00;;;;;;;;;;5031573;28;20460;-57
2023/09/15 12:24:54;;;;;;;6.18;3.05;;;;;;;;;;5020730;28;20419;-57
2023/09/15 12:27:19;;;;;;;6.68;3.42;;;;;;;;;;5018686;28;20407;-57
2023/09/15 12:29:45;;;;;;;7.72;3.30;;;;;;;;;;5023477;28;20403;-57
2023/09/15 12:32:10;;;;;;;5.63;2.65;;;;;;;;;;5029986;28;20884;-57
2023/09/15 12:34:37;;;;;;;6.13;3.30;;;;;;;;;;5026817;28;20913;-58
2023/09/15 12:37:06;;;;;;;5.90;3.33;;;;;;;;;;5028168;28;20969;-58
2023/09/15 12:39:31;;;;;;;5.90;3.23;;;;;;;;;;5033425;28;20410;-58
2023/09/15 12:41:57;;;;;;;6.32;2.95;;;;;;;;;;5032790;28;20407;-57
2023/09/15 12:44:24;;;;;;;7.47;3.42;;;;;;;;;;5027969;28;20387;-57
2023/09/15 12:46:49;;;;;;;6.88;3.30;;;;;;;;;;5030278;28;20425;-57
2023/09/15 12:49:15;;;;;;;5.97;3.00;;;;;;;;;;5032878;28;20402;-57
2023/09/15 12:51:40;;;;;;;5.53;3.07;;;;;;;;;;5029049;28;20403;-57
2023/09/15 12:54:05;;;;;;;5.83;3.03;;;;;;;;;;5016861;28;20403;-57
2023/09/15 12:56:31;;;;;;;7.20;3.70;;;;;;;;;;5023185;28;20391;-57
2023/09/15 12:58:59;;;;;;;5.97;3.10;;;;;;;;;;5018808;28;20407;-57
2023/09/15 13:01:24;;;;;;;6.55;2.97;;;;;;;;;;5020380;28;20972;-57
2023/09/15 13:03:50;;;;;;;7.25;3.22;;;;;;;;;;5022330;28;20511;-57
2023/09/15 13:06:15;;;;;;;6.73;2.70;;;;;;;;;;5020705;28;20897;-58
2023/09/15 13:08:40;;;;;;;7.07;3.00;;;;;;;;;;5016445;28;20473;-57
2023/09/15 13:11:05;;;;;;;6.63;2.60;;;;;;;;;;5021492;28;20407;-58
2023/09/15 13:13:31;;;;;;;4.65;2.45;;;;;;;;;;5022387;28;20962;-57
2023/09/15 13:15:56;;;;;;;6.13;3.05;;;;;;;;;;5033739;28;20431;-57
2023/09/15 13:18:23;;;;;;;5.10;2.50;;;;;;;;;;5039541;28;20394;-57
2023/09/15 13:20:49;;;;;;;5.53;2.70;;;;;;;;;;5039247;28;20442;-57
2023/09/15 13:23:14;;;;;;;4.40;2.90;;;;;;;;;;5033555;28;20454;-58
2023/09/15 13:25:39;;;;;;;6.33;2.73;;;;;;;;;;5035947;28;20536;-57
2023/09/15 13:28:05;;;;;;;5.40;2.67;;;;;;;;;;5035947;28;20405;-58
2023/09/15 13:30:32;;;;;;;5.28;2.42;;;;;;;;;;5033128;28;20383;-57
2023/09/15 13:32:58;;;;;;;5.65;2.50;;;;;;;;;;5015782;28;20462;-58
2023/09/15 13:35:23;;;;;;;5.93;2.40;;;;;;;;;;5009674;28;20489;-58
2023/09/15 13:37:48;;;;;;;6.25;3.00;;;;;;;;;;5003070;28;20401;-57
2023/09/15 13:40:14;;;;;;;5.53;2.60;;;;;;;;;;5006971;28;20413;-58
2023/09/15 13:42:39;;;;;;;5.32;2.60;;;;;;;;;;5017050;28;20777;-57
2023/09/15 13:45:05;;;;;;;6.20;2.63;;;;;;;;;;5013873;28;21032;-58
2023/09/15 13:47:31;;;;;;;5.57;2.67;;;;;;;;;;5008636;28;20400;-58
2023/09/15 13:49:57;;;;;;;5.80;2.67;;;;;;;;;;5009240;28;20418;-57
2023/09/15 13:52:22;;;;;;;5.07;2.60;;;;;;;;;;5011005;28;20524;-57
2023/09/15 13:54:47;;;;;;;6.07;3.00;;;;;;;;;;5008144;28;20970;-57
2023/09/15 13:57:13;;;;;;;5.90;2.50;;;;;;;;;;4994079;28;21025;-57
2023/09/15 13:59:38;;;;;;;7.40;2.97;;;;;;;;;;4987913;28;20965;-57
2023/09/15 14:02:03;;;;;;;6.50;2.87;;;;;;;;;;4987056;28;20498;-57
2023/09/15 14:04:29;;;;;;;5.70;2.67;;;;;;;;;;4988221;28;20429;-57
2023/09/15 14:06:55;;;;;;;6.43;2.75;;;;;;;;;;4991971;28;20448;-57
2023/09/15 14:09:21;;;;;;;5.68;2.88;;;;;;;;;;4993924;28;20811;-57
2023/09/15 14:11:46;;;;;;;4.88;2.40;;;;;;;;;;4997925;28;20411;-57
2023/09/15 14:14:12;;;;;;;6.78;2.80;;;;;;;;;;4993849;28;20955;-57
2023/09/15 14:16:38;;;;;;;6.25;3.08;;;;;;;;;;4995289;28;20460;-57
2023/09/15 14:19:03;;;;;;;7.50;3.50;;;;;;;;;;4992998;28;20813;-57
2023/09/15 14:21:29;;;;;;;6.25;2.90;;;;;;;;;;4985889;28;20761;-57
2023/09/15 14:23:54;;;;;;;4.50;2.20;;;;;;;;;;4987376;28;20449;-57
2023/09/15 14:26:19;;;;;;;7.27;3.17;;;;;;;;;;4995379;28;20889;-57
2023/09/15 14:28:45;;;;;;;5.87;2.90;;;;;;;;;;4997373;28;20412;-57
2023/09/15 14:31:10;;;;;;;4.63;2.47;;;;;;;;;;4994214;28;20410;-57